sensor_id;sensor_type;location;lat;lon;timestamp;P1;durP1;ratioP1;P2;durP2;ratioP2
71125;SDS011;58785;55.566;38.058;2023-03-01T00:01:00;1.17;;;0.10;;
71125;SDS011;58785;55.566;38.058;2023-03-01T00:03:27;1.40;;;0.30;;
71125;SDS011;58785;55.566;38.058;2023-03-01T00:05:53;0.77;;;0.10;;
71125;SDS011;58785;55.566;38.058;2023-03-01T00:08:18;2.90;;;0.40;;
71125;SDS011;58785;55.566;38.058;2023-03-01T00:10:44;1.73;;;0.23;;
71125;SDS011;58785;55.566;38.058;2023-03-01T00:13:10;0.40;;;0.00;;
71125;SDS011;58785;55.566;38.058;2023-03-01T00:15:39;3.03;;;1.05;;
71125;SDS011;58785;55.566;38.058;2023-03-01T00:18:07;0.85;;;0.10;;
71125;SDS011;58785;55.566;38.058;2023-03-01T00:20:35;2.88;;;0.52;;
71125;SDS011;58785;55.566;38.058;2023-03-01T00:23:00;1.92;;;0.30;;
71125;SDS011;58785;55.566;38.058;2023-03-01T00:25:26;1.23;;;0.17;;
71125;SDS011;58785;55.566;38.058;2023-03-01T00:27:52;1.00;;;0.10;;
71125;SDS011;58785;55.566;38.058;2023-03-01T00:30:17;2.47;;;0.60;;
71125;SDS011;58785;55.566;38.058;2023-03-01T00:32:43;2.05;;;0.28;;
71125;SDS011;58785;55.566;38.058;2023-03-01T00:35:09;4.53;;;0.33;;
71125;SDS011;58785;55.566;38.058;2023-03-01T00:37:34;2.23;;;0.33;;
71125;SDS011;58785;55.566;38.058;2023-03-01T00:40:00;3.92;;;0.50;;
71125;SDS011;58785;55.566;38.058;2023-03-01T00:42:26;0.97;;;0.20;;
71125;SDS011;58785;55.566;38.058;2023-03-01T00:44:51;1.60;;;0.20;;
71125;SDS011;58785;55.566;38.058;2023-03-01T00:47:17;2.23;;;0.70;;
71125;SDS011;58785;55.566;38.058;2023-03-01T00:49:42;0.93;;;0.10;;
71125;SDS011;58785;55.566;38.058;2023-03-01T00:52:08;1.02;;;0.20;;
71125;SDS011;58785;55.566;38.058;2023-03-01T00:54:33;1.90;;;0.20;;
71125;SDS011;58785;55.566;38.058;2023-03-01T00:56:59;1.87;;;0.43;;
71125;SDS011;58785;55.566;38.058;2023-03-01T00:59:25;1.38;;;0.30;;
71125;SDS011;58785;55.566;38.058;2023-03-01T01:01:50;2.73;;;0.20;;
71125;SDS011;58785;55.566;38.058;2023-03-01T01:04:16;1.17;;;0.20;;
71125;SDS011;58785;55.566;38.058;2023-03-01T01:06:43;2.63;;;0.50;;
71125;SDS011;58785;55.566;38.058;2023-03-01T01:09:12;4.35;;;0.40;;
71125;SDS011;58785;55.566;38.058;2023-03-01T01:11:42;1.92;;;0.30;;
71125;SDS011;58785;55.566;38.058;2023-03-01T01:14:13;4.00;;;0.52;;
71125;SDS011;58785;55.566;38.058;2023-03-01T01:16:39;0.80;;;0.27;;
71125;SDS011;58785;55.566;38.058;2023-03-01T01:19:04;0.93;;;0.10;;
71125;SDS011;58785;55.566;38.058;2023-03-01T01:21:30;1.58;;;0.30;;
71125;SDS011;58785;55.566;38.058;2023-03-01T01:23:57;0.80;;;0.10;;
71125;SDS011;58785;55.566;38.058;2023-03-01T01:26:28;2.50;;;0.40;;
71125;SDS011;58785;55.566;38.058;2023-03-01T01:28:55;1.65;;;0.30;;
71125;SDS011;58785;55.566;38.058;2023-03-01T01:31:22;1.70;;;0.20;;
71125;SDS011;58785;55.566;38.058;2023-03-01T01:33:49;1.65;;;0.43;;
71125;SDS011;58785;55.566;38.058;2023-03-01T01:36:16;2.73;;;0.27;;
71125;SDS011;58785;55.566;38.058;2023-03-01T01:38:42;2.45;;;0.38;;
71125;SDS011;58785;55.566;38.058;2023-03-01T01:41:08;1.65;;;0.20;;
71125;SDS011;58785;55.566;38.058;2023-03-01T01:43:41;1.27;;;0.28;;
71125;SDS011;58785;55.566;38.058;2023-03-01T01:48:58;3.30;;;0.50;;
71125;SDS011;58785;55.566;38.058;2023-03-01T01:51:30;1.73;;;0.25;;
71125;SDS011;58785;55.566;38.058;2023-03-01T01:54:05;0.68;;;0.10;;
71125;SDS011;58785;55.566;38.058;2023-03-01T01:56:37;2.55;;;0.40;;
71125;SDS011;58785;55.566;38.058;2023-03-01T01:59:05;4.82;;;0.52;;
71125;SDS011;58785;55.566;38.058;2023-03-01T02:01:31;5.13;;;0.30;;
71125;SDS011;58785;55.566;38.058;2023-03-01T02:03:57;1.45;;;0.10;;
71125;SDS011;58785;55.566;38.058;2023-03-01T02:06:45;3.78;;;0.40;;
71125;SDS011;58785;55.566;38.058;2023-03-01T02:09:17;3.27;;;0.27;;
71125;SDS011;58785;55.566;38.058;2023-03-01T02:11:44;1.08;;;0.20;;
71125;SDS011;58785;55.566;38.058;2023-03-01T02:14:10;3.85;;;0.20;;
71125;SDS011;58785;55.566;38.058;2023-03-01T02:16:36;1.40;;;0.50;;
71125;SDS011;58785;55.566;38.058;2023-03-01T02:19:01;1.80;;;0.20;;
71125;SDS011;58785;55.566;38.058;2023-03-01T02:21:46;2.10;;;0.20;;
71125;SDS011;58785;55.566;38.058;2023-03-01T02:24:32;0.80;;;0.10;;
71125;SDS011;58785;55.566;38.058;2023-03-01T02:27:06;2.83;;;0.40;;
71125;SDS011;58785;55.566;38.058;2023-03-01T02:29:31;4.60;;;0.70;;
71125;SDS011;58785;55.566;38.058;2023-03-01T02:31:58;2.73;;;0.60;;
71125;SDS011;58785;55.566;38.058;2023-03-01T02:34:27;0.90;;;0.10;;
71125;SDS011;58785;55.566;38.058;2023-03-01T02:36:59;2.38;;;0.20;;
71125;SDS011;58785;55.566;38.058;2023-03-01T02:39:48;2.85;;;0.47;;
71125;SDS011;58785;55.566;38.058;2023-03-01T02:42:20;1.90;;;0.30;;
71125;SDS011;58785;55.566;38.058;2023-03-01T02:44:49;1.37;;;0.40;;
71125;SDS011;58785;55.566;38.058;2023-03-01T02:47:15;1.63;;;0.20;;
71125;SDS011;58785;55.566;38.058;2023-03-01T02:49:40;2.13;;;0.20;;
71125;SDS011;58785;55.566;38.058;2023-03-01T02:57:25;0.82;;;0.10;;
71125;SDS011;58785;55.566;38.058;2023-03-01T02:59:54;2.08;;;0.30;;
71125;SDS011;58785;55.566;38.058;2023-03-01T03:02:23;1.43;;;0.37;;
71125;SDS011;58785;55.566;38.058;2023-03-01T03:07:34;4.28;;;0.28;;
71125;SDS011;58785;55.566;38.058;2023-03-01T03:10:02;2.65;;;0.57;;
71125;SDS011;58785;55.566;38.058;2023-03-01T03:12:30;2.50;;;0.20;;
71125;SDS011;58785;55.566;38.058;2023-03-01T03:14:56;2.93;;;0.60;;
71125;SDS011;58785;55.566;38.058;2023-03-01T03:17:21;2.95;;;0.45;;
71125;SDS011;58785;55.566;38.058;2023-03-01T03:19:47;3.65;;;0.32;;
71125;SDS011;58785;55.566;38.058;2023-03-01T03:22:13;1.47;;;0.23;;
71125;SDS011;58785;55.566;38.058;2023-03-01T03:24:39;1.75;;;0.10;;
71125;SDS011;58785;55.566;38.058;2023-03-01T03:27:05;1.73;;;0.33;;
71125;SDS011;58785;55.566;38.058;2023-03-01T03:29:31;3.70;;;0.60;;
71125;SDS011;58785;55.566;38.058;2023-03-01T03:31:56;2.43;;;0.73;;
71125;SDS011;58785;55.566;38.058;2023-03-01T03:34:22;6.45;;;1.13;;
71125;SDS011;58785;55.566;38.058;2023-03-01T03:36:48;3.60;;;0.63;;
71125;SDS011;58785;55.566;38.058;2023-03-01T03:39:22;2.17;;;0.60;;
71125;SDS011;58785;55.566;38.058;2023-03-01T03:41:49;2.72;;;0.30;;
71125;SDS011;58785;55.566;38.058;2023-03-01T03:44:14;1.27;;;0.23;;
71125;SDS011;58785;55.566;38.058;2023-03-01T03:46:40;1.63;;;0.30;;
71125;SDS011;58785;55.566;38.058;2023-03-01T03:49:05;1.93;;;0.20;;
71125;SDS011;58785;55.566;38.058;2023-03-01T03:51:33;1.85;;;0.50;;
71125;SDS011;58785;55.566;38.058;2023-03-01T03:53:59;1.65;;;0.30;;
71125;SDS011;58785;55.566;38.058;2023-03-01T03:56:24;2.33;;;0.10;;
71125;SDS011;58785;55.566;38.058;2023-03-01T03:58:51;1.40;;;0.28;;
71125;SDS011;58785;55.566;38.058;2023-03-01T04:01:17;2.37;;;0.23;;
71125;SDS011;58785;55.566;38.058;2023-03-01T04:03:43;1.55;;;0.40;;
71125;SDS011;58785;55.566;38.058;2023-03-01T04:06:12;1.90;;;0.25;;
71125;SDS011;58785;55.566;38.058;2023-03-01T04:08:39;2.13;;;0.20;;
71125;SDS011;58785;55.566;38.058;2023-03-01T04:11:05;10.83;;;1.47;;
71125;SDS011;58785;55.566;38.058;2023-03-01T04:13:50;7.93;;;1.85;;
71125;SDS011;58785;55.566;38.058;2023-03-01T04:16:17;10.70;;;3.17;;
71125;SDS011;58785;55.566;38.058;2023-03-01T04:18:43;17.17;;;3.90;;
71125;SDS011;58785;55.566;38.058;2023-03-01T04:21:09;6.67;;;1.30;;
71125;SDS011;58785;55.566;38.058;2023-03-01T04:23:36;3.50;;;0.40;;
71125;SDS011;58785;55.566;38.058;2023-03-01T04:26:03;2.80;;;0.50;;
71125;SDS011;58785;55.566;38.058;2023-03-01T04:28:30;1.93;;;0.33;;
71125;SDS011;58785;55.566;38.058;2023-03-01T04:31:11;2.40;;;0.28;;
71125;SDS011;58785;55.566;38.058;2023-03-01T04:33:40;1.48;;;0.25;;
71125;SDS011;58785;55.566;38.058;2023-03-01T04:36:07;1.45;;;0.20;;
71125;SDS011;58785;55.566;38.058;2023-03-01T04:38:34;2.53;;;0.20;;
71125;SDS011;58785;55.566;38.058;2023-03-01T04:41:03;2.67;;;0.37;;
71125;SDS011;58785;55.566;38.058;2023-03-01T04:43:29;2.25;;;0.32;;
71125;SDS011;58785;55.566;38.058;2023-03-01T04:45:59;0.70;;;0.10;;
71125;SDS011;58785;55.566;38.058;2023-03-01T04:48:30;3.90;;;0.47;;
71125;SDS011;58785;55.566;38.058;2023-03-01T04:50:57;1.30;;;0.20;;
71125;SDS011;58785;55.566;38.058;2023-03-01T04:53:23;4.72;;;0.68;;
71125;SDS011;58785;55.566;38.058;2023-03-01T04:55:49;2.15;;;0.45;;
71125;SDS011;58785;55.566;38.058;2023-03-01T04:58:16;2.40;;;0.55;;
71125;SDS011;58785;55.566;38.058;2023-03-01T05:00:41;6.70;;;0.87;;
71125;SDS011;58785;55.566;38.058;2023-03-01T05:03:07;5.68;;;0.57;;
71125;SDS011;58785;55.566;38.058;2023-03-01T05:05:35;3.43;;;0.50;;
71125;SDS011;58785;55.566;38.058;2023-03-01T05:08:03;1.45;;;0.38;;
71125;SDS011;58785;55.566;38.058;2023-03-01T05:10:32;3.70;;;0.30;;
71125;SDS011;58785;55.566;38.058;2023-03-01T05:13:00;1.90;;;0.32;;
71125;SDS011;58785;55.566;38.058;2023-03-01T05:15:26;2.67;;;0.30;;
71125;SDS011;58785;55.566;38.058;2023-03-01T05:17:54;3.27;;;0.30;;
71125;SDS011;58785;55.566;38.058;2023-03-01T05:20:23;5.70;;;0.90;;
71125;SDS011;58785;55.566;38.058;2023-03-01T05:22:49;2.65;;;0.60;;
71125;SDS011;58785;55.566;38.058;2023-03-01T05:25:16;1.47;;;0.20;;
71125;SDS011;58785;55.566;38.058;2023-03-01T05:27:42;1.48;;;0.20;;
71125;SDS011;58785;55.566;38.058;2023-03-01T05:30:08;1.95;;;0.20;;
71125;SDS011;58785;55.566;38.058;2023-03-01T05:32:41;2.88;;;0.63;;
71125;SDS011;58785;55.566;38.058;2023-03-01T05:35:11;2.03;;;0.30;;
71125;SDS011;58785;55.566;38.058;2023-03-01T05:37:41;2.35;;;0.50;;
71125;SDS011;58785;55.566;38.058;2023-03-01T05:40:09;2.40;;;0.60;;
71125;SDS011;58785;55.566;38.058;2023-03-01T05:42:46;5.22;;;1.20;;
71125;SDS011;58785;55.566;38.058;2023-03-01T05:45:14;3.17;;;0.63;;
71125;SDS011;58785;55.566;38.058;2023-03-01T05:47:42;7.23;;;0.90;;
71125;SDS011;58785;55.566;38.058;2023-03-01T05:50:10;3.33;;;0.70;;
71125;SDS011;58785;55.566;38.058;2023-03-01T05:52:36;2.88;;;0.75;;
71125;SDS011;58785;55.566;38.058;2023-03-01T05:55:02;4.83;;;1.20;;
71125;SDS011;58785;55.566;38.058;2023-03-01T05:57:28;4.20;;;1.17;;
71125;SDS011;58785;55.566;38.058;2023-03-01T05:59:54;4.40;;;0.85;;
71125;SDS011;58785;55.566;38.058;2023-03-01T06:02:20;6.07;;;0.70;;
71125;SDS011;58785;55.566;38.058;2023-03-01T06:04:46;4.10;;;1.20;;
71125;SDS011;58785;55.566;38.058;2023-03-01T06:07:11;2.60;;;0.30;;
71125;SDS011;58785;55.566;38.058;2023-03-01T06:09:37;3.43;;;0.97;;
71125;SDS011;58785;55.566;38.058;2023-03-01T06:12:02;4.05;;;0.50;;
71125;SDS011;58785;55.566;38.058;2023-03-01T06:14:29;15.90;;;0.85;;
71125;SDS011;58785;55.566;38.058;2023-03-01T06:16:54;6.13;;;0.87;;
71125;SDS011;58785;55.566;38.058;2023-03-01T06:19:20;3.33;;;0.67;;
71125;SDS011;58785;55.566;38.058;2023-03-01T06:21:45;3.63;;;0.75;;
71125;SDS011;58785;55.566;38.058;2023-03-01T06:24:11;5.47;;;0.50;;
71125;SDS011;58785;55.566;38.058;2023-03-01T06:26:37;2.97;;;0.70;;
71125;SDS011;58785;55.566;38.058;2023-03-01T06:29:02;2.37;;;0.60;;
71125;SDS011;58785;55.566;38.058;2023-03-01T06:31:28;4.00;;;0.75;;
71125;SDS011;58785;55.566;38.058;2023-03-01T06:33:53;2.53;;;0.40;;
71125;SDS011;58785;55.566;38.058;2023-03-01T06:36:19;2.20;;;0.53;;
71125;SDS011;58785;55.566;38.058;2023-03-01T06:38:46;6.60;;;1.30;;
71125;SDS011;58785;55.566;38.058;2023-03-01T06:41:12;4.75;;;0.75;;
71125;SDS011;58785;55.566;38.058;2023-03-01T06:43:37;2.77;;;0.67;;
71125;SDS011;58785;55.566;38.058;2023-03-01T06:46:04;4.95;;;0.68;;
71125;SDS011;58785;55.566;38.058;2023-03-01T06:48:30;5.50;;;1.13;;
71125;SDS011;58785;55.566;38.058;2023-03-01T06:50:58;4.73;;;1.17;;
71125;SDS011;58785;55.566;38.058;2023-03-01T06:53:27;4.00;;;0.65;;
71125;SDS011;58785;55.566;38.058;2023-03-01T06:55:54;3.13;;;0.47;;
71125;SDS011;58785;55.566;38.058;2023-03-01T06:58:21;3.28;;;0.57;;
71125;SDS011;58785;55.566;38.058;2023-03-01T07:00:48;3.27;;;0.67;;
71125;SDS011;58785;55.566;38.058;2023-03-01T07:03:14;1.77;;;0.28;;
71125;SDS011;58785;55.566;38.058;2023-03-01T07:05:40;2.03;;;0.40;;
71125;SDS011;58785;55.566;38.058;2023-03-01T07:08:05;2.22;;;0.40;;
71125;SDS011;58785;55.566;38.058;2023-03-01T07:10:31;4.50;;;0.80;;
71125;SDS011;58785;55.566;38.058;2023-03-01T07:12:57;5.25;;;0.60;;
71125;SDS011;58785;55.566;38.058;2023-03-01T07:15:23;4.30;;;0.90;;
71125;SDS011;58785;55.566;38.058;2023-03-01T07:17:50;4.28;;;0.93;;
71125;SDS011;58785;55.566;38.058;2023-03-01T07:20:16;6.07;;;1.00;;
71125;SDS011;58785;55.566;38.058;2023-03-01T07:22:43;4.93;;;0.95;;
71125;SDS011;58785;55.566;38.058;2023-03-01T07:25:09;3.00;;;0.43;;
71125;SDS011;58785;55.566;38.058;2023-03-01T07:27:35;8.93;;;1.27;;
71125;SDS011;58785;55.566;38.058;2023-03-01T07:30:02;3.80;;;1.08;;
71125;SDS011;58785;55.566;38.058;2023-03-01T07:32:29;4.90;;;0.87;;
71125;SDS011;58785;55.566;38.058;2023-03-01T07:34:55;4.38;;;0.60;;
71125;SDS011;58785;55.566;38.058;2023-03-01T07:37:20;5.77;;;0.87;;
71125;SDS011;58785;55.566;38.058;2023-03-01T07:39:46;3.20;;;0.70;;
71125;SDS011;58785;55.566;38.058;2023-03-01T07:42:12;5.57;;;1.10;;
71125;SDS011;58785;55.566;38.058;2023-03-01T07:44:37;5.18;;;1.17;;
71125;SDS011;58785;55.566;38.058;2023-03-01T07:47:03;7.57;;;1.23;;
71125;SDS011;58785;55.566;38.058;2023-03-01T07:49:29;6.65;;;1.10;;
71125;SDS011;58785;55.566;38.058;2023-03-01T07:51:55;8.53;;;1.50;;
71125;SDS011;58785;55.566;38.058;2023-03-01T07:54:21;3.35;;;0.75;;
71125;SDS011;58785;55.566;38.058;2023-03-01T07:56:46;5.70;;;1.00;;
71125;SDS011;58785;55.566;38.058;2023-03-01T07:59:12;4.60;;;1.10;;
71125;SDS011;58785;55.566;38.058;2023-03-01T08:01:38;6.75;;;1.05;;
71125;SDS011;58785;55.566;38.058;2023-03-01T08:04:03;4.20;;;0.93;;
71125;SDS011;58785;55.566;38.058;2023-03-01T08:06:33;4.68;;;1.02;;
71125;SDS011;58785;55.566;38.058;2023-03-01T08:09:00;7.55;;;1.70;;
71125;SDS011;58785;55.566;38.058;2023-03-01T08:11:25;5.13;;;1.07;;
71125;SDS011;58785;55.566;38.058;2023-03-01T08:13:53;9.32;;;2.17;;
71125;SDS011;58785;55.566;38.058;2023-03-01T08:16:19;4.27;;;1.00;;
71125;SDS011;58785;55.566;38.058;2023-03-01T08:18:44;5.68;;;0.88;;
71125;SDS011;58785;55.566;38.058;2023-03-01T08:21:13;5.40;;;1.27;;
71125;SDS011;58785;55.566;38.058;2023-03-01T08:23:41;4.97;;;1.23;;
71125;SDS011;58785;55.566;38.058;2023-03-01T08:26:11;6.05;;;1.60;;
71125;SDS011;58785;55.566;38.058;2023-03-01T08:28:43;3.03;;;0.40;;
71125;SDS011;58785;55.566;38.058;2023-03-01T08:31:17;5.65;;;1.00;;
71125;SDS011;58785;55.566;38.058;2023-03-01T08:33:45;3.37;;;0.80;;
71125;SDS011;58785;55.566;38.058;2023-03-01T08:36:21;2.92;;;0.57;;
71125;SDS011;58785;55.566;38.058;2023-03-01T08:38:48;2.97;;;0.45;;
71125;SDS011;58785;55.566;38.058;2023-03-01T08:41:14;5.03;;;0.65;;
71125;SDS011;58785;55.566;38.058;2023-03-01T08:43:40;2.75;;;0.73;;
71125;SDS011;58785;55.566;38.058;2023-03-01T08:46:06;3.23;;;0.53;;
71125;SDS011;58785;55.566;38.058;2023-03-01T08:48:32;4.82;;;0.90;;
71125;SDS011;58785;55.566;38.058;2023-03-01T08:51:06;3.30;;;0.80;;
71125;SDS011;58785;55.566;38.058;2023-03-01T08:53:36;5.20;;;0.80;;
71125;SDS011;58785;55.566;38.058;2023-03-01T08:56:02;4.25;;;0.70;;
71125;SDS011;58785;55.566;38.058;2023-03-01T08:58:29;2.28;;;0.60;;
71125;SDS011;58785;55.566;38.058;2023-03-01T09:00:54;3.43;;;0.50;;
71125;SDS011;58785;55.566;38.058;2023-03-01T09:03:22;2.83;;;0.60;;
71125;SDS011;58785;55.566;38.058;2023-03-01T09:05:49;4.25;;;0.70;;
71125;SDS011;58785;55.566;38.058;2023-03-01T09:08:15;7.85;;;0.93;;
71125;SDS011;58785;55.566;38.058;2023-03-01T09:10:41;1.75;;;0.47;;
71125;SDS011;58785;55.566;38.058;2023-03-01T09:13:07;2.87;;;0.50;;
71125;SDS011;58785;55.566;38.058;2023-03-01T09:15:33;1.95;;;0.30;;
71125;SDS011;58785;55.566;38.058;2023-03-01T09:18:01;2.92;;;0.50;;
71125;SDS011;58785;55.566;38.058;2023-03-01T09:20:27;3.03;;;0.43;;
71125;SDS011;58785;55.566;38.058;2023-03-01T09:22:52;4.63;;;0.57;;
71125;SDS011;58785;55.566;38.058;2023-03-01T09:25:18;4.17;;;0.70;;
71125;SDS011;58785;55.566;38.058;2023-03-01T09:27:43;4.17;;;0.60;;
71125;SDS011;58785;55.566;38.058;2023-03-01T09:30:09;2.78;;;0.60;;
71125;SDS011;58785;55.566;38.058;2023-03-01T09:32:35;2.63;;;0.63;;
71125;SDS011;58785;55.566;38.058;2023-03-01T09:35:01;1.52;;;0.47;;
71125;SDS011;58785;55.566;38.058;2023-03-01T09:37:29;2.70;;;0.40;;
71125;SDS011;58785;55.566;38.058;2023-03-01T09:39:56;5.33;;;0.60;;
71125;SDS011;58785;55.566;38.058;2023-03-01T09:42:22;4.50;;;0.38;;
71125;SDS011;58785;55.566;38.058;2023-03-01T09:44:50;3.97;;;0.60;;
71125;SDS011;58785;55.566;38.058;2023-03-01T09:47:33;2.35;;;0.38;;
71125;SDS011;58785;55.566;38.058;2023-03-01T09:55:28;2.50;;;0.35;;
71125;SDS011;58785;55.566;38.058;2023-03-01T09:58:00;4.30;;;0.67;;
71125;SDS011;58785;55.566;38.058;2023-03-01T10:00:47;3.65;;;0.45;;
71125;SDS011;58785;55.566;38.058;2023-03-01T10:06:10;1.52;;;0.20;;
71125;SDS011;58785;55.566;38.058;2023-03-01T10:11:22;2.43;;;0.43;;
71125;SDS011;58785;55.566;38.058;2023-03-01T10:16:41;3.15;;;0.50;;
71125;SDS011;58785;55.566;38.058;2023-03-01T10:22:13;2.35;;;0.40;;
71125;SDS011;58785;55.566;38.058;2023-03-01T10:24:43;2.23;;;0.37;;
71125;SDS011;58785;55.566;38.058;2023-03-01T10:27:17;1.15;;;0.10;;
71125;SDS011;58785;55.566;38.058;2023-03-01T10:29:50;2.80;;;0.90;;
71125;SDS011;58785;55.566;38.058;2023-03-01T10:32:29;2.60;;;0.40;;
71125;SDS011;58785;55.566;38.058;2023-03-01T10:34:55;2.70;;;0.43;;
71125;SDS011;58785;55.566;38.058;2023-03-01T10:37:22;1.70;;;0.40;;
71125;SDS011;58785;55.566;38.058;2023-03-01T10:40:09;2.13;;;0.38;;
71125;SDS011;58785;55.566;38.058;2023-03-01T10:42:36;2.13;;;0.40;;
71125;SDS011;58785;55.566;38.058;2023-03-01T10:45:50;2.88;;;0.60;;
71125;SDS011;58785;55.566;38.058;2023-03-01T10:53:37;3.97;;;0.60;;
71125;SDS011;58785;55.566;38.058;2023-03-01T10:56:13;2.40;;;0.70;;
71125;SDS011;58785;55.566;38.058;2023-03-01T11:01:27;4.70;;;0.63;;
71125;SDS011;58785;55.566;38.058;2023-03-01T11:04:30;5.53;;;0.60;;
71125;SDS011;58785;55.566;38.058;2023-03-01T11:06:57;2.80;;;0.63;;
71125;SDS011;58785;55.566;38.058;2023-03-01T11:09:24;5.80;;;0.77;;
71125;SDS011;58785;55.566;38.058;2023-03-01T11:11:54;3.03;;;0.50;;
71125;SDS011;58785;55.566;38.058;2023-03-01T11:14:22;2.67;;;0.67;;
71125;SDS011;58785;55.566;38.058;2023-03-01T11:16:57;2.50;;;0.32;;
71125;SDS011;58785;55.566;38.058;2023-03-01T11:19:26;2.22;;;0.30;;
71125;SDS011;58785;55.566;38.058;2023-03-01T11:24:49;3.13;;;0.40;;
71125;SDS011;58785;55.566;38.058;2023-03-01T11:30:35;2.05;;;0.40;;
71125;SDS011;58785;55.566;38.058;2023-03-01T11:35:34;5.35;;;0.60;;
71125;SDS011;58785;55.566;38.058;2023-03-01T11:38:06;5.30;;;0.90;;
71125;SDS011;58785;55.566;38.058;2023-03-01T11:40:50;5.10;;;0.90;;
71125;SDS011;58785;55.566;38.058;2023-03-01T11:43:28;3.17;;;0.80;;
71125;SDS011;58785;55.566;38.058;2023-03-01T12:10:48;4.63;;;0.93;;
71125;SDS011;58785;55.566;38.058;2023-03-01T12:13:27;1.30;;;0.27;;
71125;SDS011;58785;55.566;38.058;2023-03-01T12:32:40;3.30;;;0.50;;
71125;SDS011;58785;55.566;38.058;2023-03-01T12:35:48;4.03;;;0.70;;
71125;SDS011;58785;55.566;38.058;2023-03-01T12:38:37;4.72;;;0.77;;
71125;SDS011;58785;55.566;38.058;2023-03-01T12:41:13;4.47;;;0.65;;
71125;SDS011;58785;55.566;38.058;2023-03-01T12:49:16;3.10;;;0.50;;
71125;SDS011;58785;55.566;38.058;2023-03-01T12:51:46;1.92;;;0.28;;
71125;SDS011;58785;55.566;38.058;2023-03-01T12:54:26;1.55;;;0.20;;
71125;SDS011;58785;55.566;38.058;2023-03-01T12:56:55;3.20;;;0.30;;
71125;SDS011;58785;55.566;38.058;2023-03-01T12:59:27;1.80;;;0.22;;
71125;SDS011;58785;55.566;38.058;2023-03-01T13:07:25;3.03;;;0.50;;
71125;SDS011;58785;55.566;38.058;2023-03-01T13:17:52;10.05;;;0.55;;
71125;SDS011;58785;55.566;38.058;2023-03-01T13:20:20;1.52;;;0.30;;
71125;SDS011;58785;55.566;38.058;2023-03-01T13:31:06;2.97;;;0.55;;
71125;SDS011;58785;55.566;38.058;2023-03-01T13:33:43;4.60;;;0.93;;
71125;SDS011;58785;55.566;38.058;2023-03-01T13:37:08;1.53;;;0.20;;
71125;SDS011;58785;55.566;38.058;2023-03-01T13:39:30;3.67;;;0.30;;
71125;SDS011;58785;55.566;38.058;2023-03-01T13:41:57;2.78;;;0.80;;
71125;SDS011;58785;55.566;38.058;2023-03-01T13:44:34;1.27;;;0.15;;
71125;SDS011;58785;55.566;38.058;2023-03-01T13:47:07;1.73;;;0.20;;
71125;SDS011;58785;55.566;38.058;2023-03-01T13:52:55;1.13;;;0.20;;
71125;SDS011;58785;55.566;38.058;2023-03-01T13:57:40;1.08;;;0.20;;
71125;SDS011;58785;55.566;38.058;2023-03-01T14:03:27;1.77;;;0.20;;
71125;SDS011;58785;55.566;38.058;2023-03-01T14:08:34;3.97;;;0.50;;
71125;SDS011;58785;55.566;38.058;2023-03-01T14:19:21;2.03;;;0.28;;
71125;SDS011;58785;55.566;38.058;2023-03-01T14:25:17;4.60;;;0.47;;
71125;SDS011;58785;55.566;38.058;2023-03-01T14:27:44;2.05;;;0.25;;
71125;SDS011;58785;55.566;38.058;2023-03-01T14:30:19;2.13;;;0.20;;
71125;SDS011;58785;55.566;38.058;2023-03-01T14:33:18;4.53;;;0.40;;
71125;SDS011;58785;55.566;38.058;2023-03-01T14:35:55;1.73;;;0.20;;
71125;SDS011;58785;55.566;38.058;2023-03-01T14:38:37;2.80;;;0.30;;
71125;SDS011;58785;55.566;38.058;2023-03-01T14:41:09;2.33;;;0.25;;
71125;SDS011;58785;55.566;38.058;2023-03-01T14:43:38;2.33;;;0.40;;
71125;SDS011;58785;55.566;38.058;2023-03-01T14:46:20;2.25;;;0.30;;
71125;SDS011;58785;55.566;38.058;2023-03-01T14:48:53;2.72;;;0.40;;
71125;SDS011;58785;55.566;38.058;2023-03-01T14:51:23;1.48;;;0.20;;
71125;SDS011;58785;55.566;38.058;2023-03-01T14:53:49;0.82;;;0.10;;
71125;SDS011;58785;55.566;38.058;2023-03-01T14:56:16;5.60;;;0.40;;
71125;SDS011;58785;55.566;38.058;2023-03-01T14:58:43;1.83;;;0.10;;
71125;SDS011;58785;55.566;38.058;2023-03-01T15:01:13;3.13;;;0.20;;
71125;SDS011;58785;55.566;38.058;2023-03-01T15:03:47;1.45;;;0.30;;
71125;SDS011;58785;55.566;38.058;2023-03-01T15:06:15;3.07;;;0.20;;
71125;SDS011;58785;55.566;38.058;2023-03-01T15:08:45;1.77;;;0.20;;
71125;SDS011;58785;55.566;38.058;2023-03-01T15:13:39;2.83;;;0.40;;
71125;SDS011;58785;55.566;38.058;2023-03-01T15:18:36;1.58;;;0.25;;
71125;SDS011;58785;55.566;38.058;2023-03-01T15:21:13;1.92;;;0.20;;
71125;SDS011;58785;55.566;38.058;2023-03-01T15:23:56;1.58;;;0.20;;
71125;SDS011;58785;55.566;38.058;2023-03-01T15:26:32;1.80;;;0.20;;
71125;SDS011;58785;55.566;38.058;2023-03-01T15:29:04;2.35;;;0.20;;
71125;SDS011;58785;55.566;38.058;2023-03-01T15:31:31;8.52;;;0.45;;
71125;SDS011;58785;55.566;38.058;2023-03-01T15:34:10;2.23;;;0.40;;
71125;SDS011;58785;55.566;38.058;2023-03-01T15:36:58;1.80;;;0.30;;
71125;SDS011;58785;55.566;38.058;2023-03-01T15:39:41;2.80;;;0.68;;
71125;SDS011;58785;55.566;38.058;2023-03-01T15:44:35;2.17;;;0.40;;
71125;SDS011;58785;55.566;38.058;2023-03-01T15:47:02;1.38;;;0.20;;
71125;SDS011;58785;55.566;38.058;2023-03-01T15:49:53;1.67;;;0.22;;
71125;SDS011;58785;55.566;38.058;2023-03-01T15:52:25;2.33;;;0.50;;
71125;SDS011;58785;55.566;38.058;2023-03-01T15:54:59;6.27;;;0.70;;
71125;SDS011;58785;55.566;38.058;2023-03-01T15:57:29;3.00;;;0.20;;
71125;SDS011;58785;55.566;38.058;2023-03-01T15:59:55;3.83;;;0.35;;
71125;SDS011;58785;55.566;38.058;2023-03-01T16:02:22;2.85;;;0.40;;
71125;SDS011;58785;55.566;38.058;2023-03-01T16:04:49;6.80;;;0.45;;
71125;SDS011;58785;55.566;38.058;2023-03-01T16:07:16;6.80;;;0.40;;
71125;SDS011;58785;55.566;38.058;2023-03-01T16:09:41;1.58;;;0.20;;
71125;SDS011;58785;55.566;38.058;2023-03-01T16:12:12;3.13;;;0.80;;
71125;SDS011;58785;55.566;38.058;2023-03-01T16:14:40;2.67;;;0.43;;
71125;SDS011;58785;55.566;38.058;2023-03-01T16:17:06;3.25;;;0.40;;
71125;SDS011;58785;55.566;38.058;2023-03-01T16:19:35;2.13;;;0.50;;
71125;SDS011;58785;55.566;38.058;2023-03-01T16:22:02;1.80;;;0.25;;
71125;SDS011;58785;55.566;38.058;2023-03-01T16:24:29;1.83;;;0.20;;
71125;SDS011;58785;55.566;38.058;2023-03-01T16:26:55;1.77;;;0.20;;
71125;SDS011;58785;55.566;38.058;2023-03-01T16:29:21;8.05;;;0.47;;
71125;SDS011;58785;55.566;38.058;2023-03-01T16:31:46;3.10;;;0.33;;
71125;SDS011;58785;55.566;38.058;2023-03-01T16:34:12;1.83;;;0.38;;
71125;SDS011;58785;55.566;38.058;2023-03-01T16:36:38;2.13;;;0.30;;
71125;SDS011;58785;55.566;38.058;2023-03-01T16:39:03;1.57;;;0.20;;
71125;SDS011;58785;55.566;38.058;2023-03-01T16:41:30;2.75;;;0.47;;
71125;SDS011;58785;55.566;38.058;2023-03-01T16:43:56;2.22;;;0.38;;
71125;SDS011;58785;55.566;38.058;2023-03-01T16:46:23;2.57;;;0.57;;
71125;SDS011;58785;55.566;38.058;2023-03-01T16:48:53;1.70;;;0.38;;
71125;SDS011;58785;55.566;38.058;2023-03-01T16:51:19;2.22;;;0.22;;
71125;SDS011;58785;55.566;38.058;2023-03-01T16:53:46;4.82;;;0.25;;
71125;SDS011;58785;55.566;38.058;2023-03-01T16:56:12;3.17;;;0.43;;
71125;SDS011;58785;55.566;38.058;2023-03-01T16:58:39;0.60;;;0.10;;
71125;SDS011;58785;55.566;38.058;2023-03-01T17:01:07;1.52;;;0.20;;
71125;SDS011;58785;55.566;38.058;2023-03-01T17:03:35;2.13;;;0.40;;
71125;SDS011;58785;55.566;38.058;2023-03-01T17:06:09;1.10;;;0.28;;
71125;SDS011;58785;55.566;38.058;2023-03-01T17:08:36;2.17;;;0.68;;